Wetterdaten: aktuell Freitag, 07.10.2022 04:15
Datum Zeit Lufttemp. Wassertemp. Feuchte Luftdruck Regen Wind Richtung Richtung Windben
07.10.2022 04:15 11,8 C 17,8 C 89 % 1029,0 hPa 0,0 l/m 1,8 kts (1 Bft) N-NW 331 5,2 kts (2 Bft)
07.10.2022 04:14 11,9 C 17,8 C 89 % 1029,0 hPa 0,0 l/m 1,8 kts (1 Bft) N-NW 331 3,1 kts (2 Bft)
07.10.2022 04:13 11,9 C 17,8 C 89 % 1029,0 hPa 0,0 l/m 2,7 kts (1 Bft) N-NW 331 4,2 kts (2 Bft)
07.10.2022 04:12 11,9 C 17,8 C 89 % 1029,0 hPa 0,0 l/m 3,8 kts (2 Bft) N-NW 331 5,2 kts (2 Bft)
07.10.2022 04:11 11,9 C 17,8 C 89 % 1029,0 hPa 0,0 l/m 3,9 kts (2 Bft) N-NW 331 5,2 kts (2 Bft)
07.10.2022 04:10 11,9 C 17,8 C 89 % 1029,0 hPa 0,0 l/m 3,1 kts (2 Bft) N-NW 331 5,2 kts (2 Bft)
07.10.2022 04:09 11,9 C 17,8 C 89 % 1029,0 hPa 0,0 l/m 3,3 kts (2 Bft) N-NW 331 5,2 kts (2 Bft)
07.10.2022 04:08 11,9 C 17,8 C 89 % 1029,0 hPa 0,0 l/m 4,5 kts (2 Bft) N-NW 331 6,3 kts (2 Bft)
07.10.2022 04:07 12,0 C 17,8 C 89 % 1029,0 hPa 0,0 l/m 4,3 kts (2 Bft) N-NW 331 5,2 kts (2 Bft)
07.10.2022 04:06 12,0 C 17,8 C 89 % 1028,9 hPa 0,0 l/m 4,3 kts (2 Bft) N-NW 331 6,3 kts (2 Bft)
07.10.2022 04:05 12,0 C 17,8 C 89 % 1028,9 hPa 0,0 l/m 3,4 kts (2 Bft) N-NW 331 5,2 kts (2 Bft)
07.10.2022 04:04 12,1 C 17,8 C 89 % 1029,0 hPa 0,0 l/m 2,8 kts (1 Bft) N-NW 331 5,2 kts (2 Bft)
07.10.2022 04:03 12,0 C 17,8 C 89 % 1029,0 hPa 0,0 l/m 2,9 kts (1 Bft) N-NW 331 4,2 kts (2 Bft)
07.10.2022 04:02 12,1 C 17,8 C 89 % 1028,9 hPa 0,0 l/m 2,3 kts (1 Bft) N-NW 331 4,2 kts (2 Bft)
07.10.2022 04:01 12,1 C 18,3 C 89 % 1029,0 hPa 0,0 l/m 3,5 kts (2 Bft) N-NW 331 5,2 kts (2 Bft)
07.10.2022 04:00 12,1 C 18,3 C 89 % 1029,0 hPa 0,0 l/m 3,9 kts (2 Bft) N-NW 331 6,3 kts (2 Bft)
07.10.2022 03:59 12,1 C 18,3 C 89 % 1028,9 hPa 0,0 l/m 0,5 kts (0 Bft) N-NW 331 2,1 kts (1 Bft)
07.10.2022 03:58 12,1 C 18,3 C 89 % 1029,0 hPa 0,0 l/m 0,8 kts (1 Bft) N-NW 331 4,2 kts (2 Bft)
07.10.2022 03:57 12,1 C 18,3 C 88 % 1029,0 hPa 0,0 l/m 3,2 kts (2 Bft) N-NW 331 5,2 kts (2 Bft)
07.10.2022 03:56 12,0 C 18,3 C 88 % 1029,0 hPa 0,0 l/m 2,5 kts (1 Bft) N-NW 331 5,2 kts (2 Bft)
07.10.2022 03:55 12,0 C 18,3 C 87 % 1029,0 hPa 0,0 l/m 1,2 kts (1 Bft) N-NW 331 3,1 kts (2 Bft)
07.10.2022 03:54 12,0 C 18,3 C 87 % 1029,0 hPa 0,0 l/m 3,5 kts (2 Bft) N-NW 331 4,2 kts (2 Bft)
07.10.2022 03:53 12,1 C 18,3 C 86 % 1029,0 hPa 0,0 l/m 3,1 kts (2 Bft) N-NW 331 4,2 kts (2 Bft)
07.10.2022 03:52 12,1 C 18,3 C 86 % 1029,0 hPa 0,0 l/m 4,3 kts (2 Bft) N-NW 331 6,3 kts (2 Bft)
07.10.2022 03:51 12,1 C 18,3 C 86 % 1029,0 hPa 0,0 l/m 4,2 kts (2 Bft) N-NW 331 6,3 kts (2 Bft)
07.10.2022 03:50 12,2 C 18,3 C 86 % 1029,0 hPa 0,0 l/m 2,8 kts (1 Bft) N-NW 331 4,2 kts (2 Bft)
07.10.2022 03:49 12,2 C 18,3 C 86 % 1029,0 hPa 0,0 l/m 4,0 kts (2 Bft) N-NW 331 5,2 kts (2 Bft)
07.10.2022 03:48 12,3 C 18,3 C 86 % 1029,1 hPa 0,0 l/m 3,3 kts (2 Bft) N-NW 331 5,2 kts (2 Bft)
07.10.2022 03:47 12,3 C 18,3 C 86 % 1029,1 hPa 0,0 l/m 3,0 kts (2 Bft) N-NW 331 4,2 kts (2 Bft)
07.10.2022 03:46 12,4 C 18,3 C 86 % 1029,0 hPa 0,0 l/m 3,0 kts (2 Bft) N-NW 331 4,2 kts (2 Bft)
07.10.2022 03:45 12,4 C 18,3 C 87 % 1029,0 hPa 0,0 l/m 4,4 kts (2 Bft) N-NW 331 7,3 kts (3 Bft)
07.10.2022 03:44 12,4 C 18,3 C 87 % 1029,0 hPa 0,0 l/m 2,6 kts (1 Bft) N-NW 331 5,2 kts (2 Bft)
07.10.2022 03:43 12,4 C 18,3 C 87 % 1029,0 hPa 0,0 l/m 2,5 kts (1 Bft) N-NW 331 5,2 kts (2 Bft)
07.10.2022 03:42 12,4 C 18,3 C 87 % 1029,0 hPa 0,0 l/m 0,9 kts (1 Bft) N-NW 331 4,2 kts (2 Bft)
07.10.2022 03:41 12,4 C 18,3 C 87 % 1029,1 hPa 0,0 l/m 3,9 kts (2 Bft) N-NW 331 7,3 kts (3 Bft)
07.10.2022 03:40 12,5 C 18,3 C 87 % 1029,1 hPa 0,0 l/m 3,1 kts (2 Bft) N-NW 331 6,3 kts (2 Bft)
07.10.2022 03:39 12,5 C 18,3 C 87 % 1029,1 hPa 0,0 l/m 1,7 kts (1 Bft) N-NW 331 5,2 kts (2 Bft)
07.10.2022 03:38 12,5 C 18,3 C 87 % 1029,0 hPa 0,0 l/m 0,3 kts (0 Bft) N-NW 331 3,1 kts (2 Bft)
07.10.2022 03:37 12,5 C 18,3 C 87 % 1029,1 hPa 0,0 l/m 0,2 kts (0 Bft) N-NW 331 2,1 kts (1 Bft)
07.10.2022 03:36 12,6 C 18,3 C 87 % 1029,1 hPa 0,0 l/m 0,9 kts (1 Bft) N-NW 331 4,2 kts (2 Bft)
07.10.2022 03:35 12,6 C 18,3 C 87 % 1029,1 hPa 0,0 l/m 3,0 kts (2 Bft) N-NW 331 4,2 kts (2 Bft)
07.10.2022 03:34 12,6 C 18,3 C 87 % 1029,1 hPa 0,0 l/m 3,6 kts (2 Bft) N-NW 331 5,2 kts (2 Bft)
07.10.2022 03:33 12,6 C 18,3 C 88 % 1029,1 hPa 0,0 l/m 3,0 kts (2 Bft) N-NW 331 5,2 kts (2 Bft)
07.10.2022 03:32 12,6 C 18,3 C 88 % 1029,2 hPa 0,0 l/m 4,8 kts (2 Bft) N-NW 331 6,3 kts (2 Bft)
07.10.2022 03:31 12,6 C 18,3 C 88 % 1029,2 hPa 0,0 l/m 2,6 kts (1 Bft) N-NW 331 4,2 kts (2 Bft)
07.10.2022 03:30 12,5 C 18,3 C 88 % 1029,2 hPa 0,0 l/m 1,5 kts (1 Bft) N-NW 331 5,2 kts (2 Bft)
07.10.2022 03:29 12,5 C 18,3 C 88 % 1029,2 hPa 0,0 l/m 3,0 kts (2 Bft) N-NW 331 5,2 kts (2 Bft)
07.10.2022 03:28 12,4 C 18,3 C 88 % 1029,2 hPa 0,0 l/m 1,0 kts (1 Bft) N-NW 331 4,2 kts (2 Bft)
07.10.2022 03:27 12,4 C 18,3 C 87 % 1029,3 hPa 0,0 l/m 3,0 kts (2 Bft) N-NW 331 4,2 kts (2 Bft)
07.10.2022 03:26 12,4 C 18,3 C 87 % 1029,3 hPa 0,0 l/m 2,8 kts (1 Bft) N-NW 331 4,2 kts (2 Bft)
07.10.2022 03:25 12,4 C 18,3 C 88 % 1029,3 hPa 0,0 l/m 4,2 kts (2 Bft) N-NW 331 6,3 kts (2 Bft)
07.10.2022 03:24 12,5 C 18,3 C 88 % 1029,3 hPa 0,0 l/m 4,0 kts (2 Bft) N-NW 331 6,3 kts (2 Bft)
07.10.2022 03:23 12,4 C 18,3 C 87 % 1029,3 hPa 0,0 l/m 2,5 kts (1 Bft) N-NW 331 5,2 kts (2 Bft)
07.10.2022 03:22 12,5 C 18,3 C 87 % 1029,3 hPa 0,0 l/m 0,0 kts (0 Bft) N-NW 331 0,0 kts (0 Bft)
07.10.2022 03:21 12,5 C 18,3 C 87 % 1029,4 hPa 0,0 l/m 2,3 kts (1 Bft) N-NW 331 5,2 kts (2 Bft)
07.10.2022 03:20 12,6 C 18,3 C 87 % 1029,3 hPa 0,0 l/m 3,5 kts (2 Bft) N-NW 331 4,2 kts (2 Bft)
07.10.2022 03:19 12,6 C 18,3 C 88 % 1029,4 hPa 0,0 l/m 3,1 kts (2 Bft) N-NW 331 5,2 kts (2 Bft)
07.10.2022 03:18 12,6 C 18,3 C 88 % 1029,4 hPa 0,0 l/m 0,0 kts (0 Bft) N-NW 331 0,0 kts (0 Bft)
07.10.2022 03:17 12,6 C 18,3 C 88 % 1029,4 hPa 0,0 l/m 0,0 kts (0 Bft) N-NW 331 0,0 kts (0 Bft)
07.10.2022 03:16 12,5 C 18,3 C 87 % 1029,4 hPa 0,0 l/m 2,9 kts (1 Bft) N-NW 331 7,3 kts (3 Bft)
07.10.2022 03:15 12,4 C 18,3 C 87 % 1029,4 hPa 0,0 l/m 3,7 kts (2 Bft) N-NW 331 6,3 kts (2 Bft)
_ Min-Zeit 04:15 04:02 00:00 03:59 - 00:00 - - 00:00
Minimum _ 11,8 C 17,8 C 85 % 1028,9 hPa - 0,0 kts (0 Bft) - - 0,0 kts (0 Bft)
_ Max-Zeit 00:07 00:00 02:18 00:30 00:00 03:32 - - 03:16
Maximum _ 14,1 C 18,3 C 93 % 1029,8 hPa 0,0 l/m 4,8 kts
N-NW (2 Bft)
- - 7,3 kts
N-NW (3 Bft)
Durchschnitt _ 12,9 C 18,3 C 88 % 1029,5 hPa #0,0 l/m 1,3 kts (1 Bft) N-NW - 2,5 kts (1 Bft)